Wind EuroAirport

Messzeit Windrichtung Windgeschwindigkeit [Knoten] Rückenwind Nordpiste [Knoten] METAR
2024-03-03 20:00 W 250° 14 - LFSB 031900Z AUTO 25014KT 9999 FEW027 SCT033 BKN044 08/05 Q1002 TEMPO 26015G25KT
2024-03-03 19:30 W 250° 14 - LFSB 031830Z AUTO 25014KT 9999 FEW024 SCT039 09/06 Q1001 TEMPO 26015G25KT
2024-03-03 19:00 W 260° 11 2 LFSB 031800Z AUTO 26011KT 9999 SCT026 SCT032 BKN041 09/06 Q1001 TEMPO 26015G25KT
2024-03-03 18:30 W 260° 14 2 LFSB 031730Z 26014KT 9999 SCT025 SCT170 BKN250 10/06 Q1000 NOSIG
2024-03-03 18:00 W 290° 6 4 LFSB 031700Z 29006KT 9999 FEW025 SCT170 BKN250 09/07 Q0999 NOSIG
2024-03-03 17:30 NW 310° 3 3 LFSB 031630Z AUTO 31003KT CAVOK 11/07 Q0999 NOSIG
2024-03-03 17:00 NW 310° 4 3 LFSB 031600Z AUTO 31004KT CAVOK 11/08 Q0998 NOSIG
2024-03-03 16:30 W 290° 3 2 LFSB 031530Z AUTO 29003KT CAVOK 12/08 Q0998 NOSIG
2024-03-03 16:00 NW 310° 4 3 LFSB 031500Z AUTO 31004KT CAVOK 12/08 Q0997 NOSIG
2024-03-03 15:30 W 280° 6 3 LFSB 031430Z AUTO 28006KT CAVOK 12/07 Q0997 NOSIG
2024-03-03 15:00 NW 300°
(270°–330°)
4 1–4 LFSB 031400Z AUTO 30004KT 270V330 CAVOK 12/07 Q0997 NOSIG
2024-03-03 14:30 NW 320°
(290°–10°)
3 2–3 LFSB 031330Z AUTO 32003KT 290V010 CAVOK 12/07 Q0997 NOSIG
2024-03-03 14:00 W 290°
(260°–320°)
5 1–5 LFSB 031300Z AUTO 29005KT 260V320 CAVOK 12/07 Q0997 NOSIG
2024-03-03 13:30 NW 330° 5 5 LFSB 031230Z AUTO 33005KT CAVOK 11/07 Q0997 NOSIG
2024-03-03 13:00 var 360°
(330°–40°)
3 2–3 LFSB 031200Z AUTO 36003KT 330V040 CAVOK 10/06 Q0997 NOSIG
2024-03-03 12:30 N 10°
(340°–40°)
4 2–4 LFSB 031130Z AUTO 01004KT 340V040 CAVOK 10/06 Q0997 NOSIG
2024-03-03 12:00 N 10°
(340°–40°)
5 3–5 LFSB 031100Z AUTO 01005KT 340V040 9999 FEW011 BKN160 BKN200 10/06 Q0997 NOSIG
2024-03-03 11:30 N 10°
(340°–40°)
5 3–5 LFSB 031030Z AUTO 01005KT 340V040 CAVOK 10/06 Q0997 NOSIG
2024-03-03 11:00 N 10°
(320°–50°)
4 1–4 LFSB 031000Z AUTO 01004KT 320V050 CAVOK 10/06 Q0997 NOSIG
2024-03-03 10:30 - 2 - LFSB 030930Z AUTO VRB02KT CAVOK 09/05 Q0997 NOSIG
2024-03-03 10:00 - 3 - LFSB 030900Z AUTO VRB03KT CAVOK 09/06 Q0998 NOSIG
2024-03-03 09:30 - 0 - LFSB 030830Z AUTO 00000KT CAVOK 09/06 Q0998 NOSIG
2024-03-03 09:00 - 2 - LFSB 030800Z AUTO VRB02KT CAVOK 06/05 Q0998 NOSIG
2024-03-03 08:30 W 290° 2 1 LFSB 030730Z AUTO 29002KT CAVOK 04/04 Q0998 NOSIG
2024-03-03 08:00 - 2 - LFSB 030700Z AUTO VRB02KT CAVOK 04/03 Q0998 NOSIG
2024-03-03 07:30 NW 300° 1 1 LFSB 030630Z AUTO 30001KT 9000 NSC 03/03 Q0998 NOSIG
2024-03-03 07:00 SW 230°
(200°–290°)
3 0–2 LFSB 030600Z AUTO 23003KT 200V290 CAVOK 04/03 Q0998 NOSIG
2024-03-03 06:30 - 2 - LFSB 030530Z AUTO VRB02KT CAVOK 05/04 Q0998 TEMPO BKN005
2024-03-03 06:00 O 100° 3 - LFSB 030500Z AUTO 10003KT CAVOK 05/04 Q0998 NOSIG
2024-03-03 05:30 NW 320° 3 3 LFSB 030430Z AUTO 32003KT CAVOK 05/04 Q0998 NOSIG
2024-03-03 05:00 SW 220° 3 - LFSB 030400Z AUTO 22003KT CAVOK 06/04 Q0998 NOSIG
2024-03-03 04:30 - 2 - LFSB 030330Z AUTO VRB02KT CAVOK 05/04 Q0998 NOSIG
2024-03-03 04:00 - 2 - LFSB 030300Z AUTO VRB02KT CAVOK 05/04 Q0998 NOSIG
2024-03-03 03:30 S 200°
(130°–200°)
3 - LFSB 030230Z AUTO 20003KT 130V200 CAVOK 06/04 Q0998 NOSIG
2024-03-03 03:00 SO 120°
(70°–190°)
5 - LFSB 030200Z AUTO 12005KT 070V190 CAVOK 06/05 Q0998 NOSIG
2024-03-03 02:30 - 2 - LFSB 030130Z AUTO VRB02KT CAVOK 06/05 Q0999 NOSIG
2024-03-03 02:00 - 2 - LFSB 030100Z AUTO VRB02KT CAVOK 05/04 Q0999 NOSIG
2024-03-03 01:30 - 3 - LFSB 030030Z AUTO VRB03KT CAVOK 06/05 Q0999 NOSIG
2024-03-03 01:00 - 3 - LFSB 030000Z AUTO VRB03KT CAVOK 06/05 Q0999 NOSIG
2024-03-03 00:30 - 2 - LFSB 022330Z AUTO VRB02KT CAVOK 05/04 Q0999 NOSIG
2024-03-03 00:00 - 0 - LFSB 022300Z AUTO 00000KT CAVOK 05/04 Q0999 NOSIG
2024-03-02 23:30 - 0 - LFSB 022230Z AUTO 00000KT CAVOK 06/04 Q0999 NOSIG
2024-03-02 23:00 SW 220° 2 - LFSB 022200Z AUTO 22002KT CAVOK 06/04 Q0999 NOSIG
2024-03-02 22:30 S 170° 2 - LFSB 022130Z AUTO 17002KT CAVOK 06/04 Q0999 NOSIG
2024-03-02 22:00 SW 220° 2 - LFSB 022100Z AUTO 22002KT CAVOK 06/04 Q1000 NOSIG
2024-03-02 21:30 SO 120° 4 - LFSB 022030Z AUTO 12004KT CAVOK 08/04 Q1000 NOSIG
2024-03-02 21:00 SW 220° 4 - LFSB 022000Z AUTO 22004KT CAVOK 08/05 Q1000 NOSIG
2024-03-02 20:30 W 270°
(250°–310°)
3 0–3 LFSB 021930Z AUTO 27003KT 250V310 CAVOK 07/04 Q1000 NOSIG